Time;durP1;ratioP1;P1;durP2;ratioP2;P2;SDS_P1;SDS_P2;PMS_P1;PMS_P2;Temp;Humidity;BMP_temperature;BMP_pressure;BME280_temperature;BME280_humidity;BME280_pressure;Samples;Min_cycle;Max_cycle;Signal;HPM_P1;HPM_P2
2021/06/17 00:00:12;;;;;;;8.70;2.80;;;;;;;15.27;76.61;101069.81;4996166;28;20176;-71
2021/06/17 00:02:38;;;;;;;5.17;2.80;;;;;;;15.29;76.26;101061.63;4996120;28;20215;-73
2021/06/17 00:05:05;;;;;;;9.07;2.93;;;;;;;15.32;75.80;101064.09;5014001;28;20169;-71
2021/06/17 00:07:30;;;;;;;6.83;2.80;;;;;;;15.20;76.28;101059.56;4999015;28;20183;-71
2021/06/17 00:09:55;;;;;;;8.87;3.37;;;;;;;15.17;76.15;101057.94;5000083;28;20180;-71
2021/06/17 00:12:21;;;;;;;9.70;3.07;;;;;;;15.22;76.44;101063.00;5000898;28;20604;-71
2021/06/17 00:14:46;;;;;;;8.53;3.03;;;;;;;15.25;76.26;101061.00;5000153;28;20243;-71
2021/06/17 00:17:11;;;;;;;11.13;3.20;;;;;;;15.12;76.54;101068.16;4999996;28;20168;-72
2021/06/17 00:19:37;;;;;;;8.80;3.20;;;;;;;15.15;76.58;101067.06;5000300;28;20184;-72
2021/06/17 00:22:03;;;;;;;7.73;3.80;;;;;;;15.19;75.91;101069.44;4983788;28;20565;-72
2021/06/17 00:24:28;;;;;;;10.80;3.10;;;;;;;15.25;75.71;101077.13;5000413;28;20613;-72
2021/06/17 00:26:54;;;;;;;11.73;3.07;;;;;;;15.24;75.74;101079.91;5000391;28;20193;-72
2021/06/17 00:29:19;;;;;;;8.30;3.73;;;;;;;15.21;75.50;101080.97;4999845;28;20622;-72
2021/06/17 00:31:45;;;;;;;10.17;3.47;;;;;;;15.29;75.39;101070.56;5000419;28;20239;-72
2021/06/17 00:34:11;;;;;;;6.60;3.40;;;;;;;15.22;75.54;101080.00;5000369;28;20197;-71
2021/06/17 00:36:37;;;;;;;7.67;3.87;;;;;;;15.20;75.80;101073.84;5018613;28;20197;-72
2021/06/17 00:39:04;;;;;;;11.60;3.03;;;;;;;15.25;75.12;101081.63;4999817;28;20191;-72
2021/06/17 00:41:29;;;;;;;7.47;3.30;;;;;;;15.21;75.65;101082.78;5019640;28;20268;-72
2021/06/17 00:43:54;;;;;;;7.93;2.87;;;;;;;15.19;75.95;101079.34;5024378;28;20169;-73
2021/06/17 00:46:19;;;;;;;5.80;3.17;;;;;;;15.20;75.22;101078.38;5002269;28;20169;-72
2021/06/17 00:48:45;;;;;;;6.00;3.37;;;;;;;15.20;74.69;101090.00;5019644;28;20176;-72
2021/06/17 00:51:10;;;;;;;7.77;3.10;;;;;;;15.22;74.21;101081.81;5001203;28;20176;-73
2021/06/17 00:53:35;;;;;;;9.53;3.73;;;;;;;15.29;73.71;101081.31;5000802;28;20184;-72
2021/06/17 00:56:02;;;;;;;8.10;3.50;;;;;;;15.33;73.28;101079.28;5000892;28;20681;-72
2021/06/17 00:58:28;;;;;;;8.13;3.07;;;;;;;15.39;72.64;101086.06;5000634;28;20173;-72
2021/06/17 01:00:54;;;;;;;7.33;3.07;;;;;;;15.43;71.93;101083.03;4984078;28;20227;-71
2021/06/17 01:03:20;;;;;;;10.40;3.30;;;;;;;15.42;71.83;101083.16;4999672;28;20202;-72
2021/06/17 01:05:46;;;;;;;7.27;3.50;;;;;;;15.41;71.90;101070.69;4983201;28;20264;-72
2021/06/17 01:08:30;;;;;;;10.43;3.37;;;;;;;15.41;72.24;101073.38;4983402;28;20273;-72
2021/06/17 01:11:18;;;;;;;5.30;3.17;;;;;;;15.29;72.12;101070.56;4983131;28;20172;-72
2021/06/17 01:13:51;;;;;;;6.73;3.30;;;;;;;15.32;71.92;101072.19;4999477;28;20161;-72
2021/06/17 01:16:36;;;;;;;6.23;3.63;;;;;;;15.29;71.83;101070.56;5017244;28;20161;-72
2021/06/17 01:19:10;;;;;;;5.77;3.37;;;;;;;15.25;72.24;101063.69;4981989;28;20645;-72
2021/06/17 01:22:13;;;;;;;6.10;3.30;;;;;;;15.23;71.54;101054.81;4999629;28;20311;-72
2021/06/17 01:24:44;;;;;;;4.63;2.80;;;;;;;15.26;70.80;101049.25;5016566;28;20180;-72
2021/06/17 01:27:30;;;;;;;7.20;3.53;;;;;;;15.15;71.66;101049.13;5016119;28;20173;-72
2021/06/17 01:29:58;;;;;;;7.23;3.33;;;;;;;15.16;71.11;101048.16;5016191;28;20177;-72
2021/06/17 01:32:25;;;;;;;8.97;3.23;;;;;;;15.08;72.05;101045.13;4998338;28;20207;-72
2021/06/17 01:34:51;;;;;;;9.07;3.20;;;;;;;15.10;71.50;101043.19;4998309;28;20739;-72
2021/06/17 01:37:18;;;;;;;13.47;3.47;;;;;;;15.09;71.21;101038.78;4998307;28;20169;-72
2021/06/17 01:39:44;;;;;;;4.40;2.83;;;;;;;15.18;70.63;101035.47;4998410;28;20230;-72
2021/06/17 01:42:10;;;;;;;8.10;3.47;;;;;;;15.11;70.59;101031.47;4998142;28;20196;-72
2021/06/17 01:44:36;;;;;;;6.30;3.03;;;;;;;15.18;69.71;101030.09;4998709;28;20173;-72
2021/06/17 01:47:03;;;;;;;11.47;3.00;;;;;;;15.17;70.01;101035.56;4998457;28;20179;-72
2021/06/17 01:49:29;;;;;;;6.53;2.93;;;;;;;15.20;69.01;101032.66;4998818;28;20177;-73
2021/06/17 01:51:56;;;;;;;8.80;3.30;;;;;;;15.20;68.97;101035.34;4998518;28;20737;-72
2021/06/17 01:54:21;;;;;;;6.57;3.00;;;;;;;15.24;68.57;101042.28;5015883;28;20283;-72
2021/06/17 01:56:48;;;;;;;6.50;3.13;;;;;;;15.26;68.18;101043.88;4998511;28;20284;-71
2021/06/17 01:59:14;;;;;;;7.27;3.43;;;;;;;15.22;68.71;101036.09;4997547;28;20176;-72
2021/06/17 02:01:39;;;;;;;6.87;2.80;;;;;;;15.26;68.15;101041.19;5004461;22;20216;-68
2021/06/17 02:04:05;;;;;;;6.43;2.67;;;;;;;15.31;67.47;101040.88;4997122;28;20235;-69
2021/06/17 02:06:30;;;;;;;5.43;2.70;;;;;;;15.40;66.90;101028.59;4997711;28;20212;-69
2021/06/17 02:08:57;;;;;;;6.80;2.90;;;;;;;15.33;67.27;101033.56;4997560;28;20317;-69
2021/06/17 02:11:24;;;;;;;6.10;3.10;;;;;;;15.29;67.16;101037.44;4997656;28;20603;-69
2021/06/17 02:13:49;;;;;;;4.97;2.53;;;;;;;15.31;67.00;101030.97;5014772;28;20228;-69
2021/06/17 02:16:16;;;;;;;9.00;3.00;;;;;;;15.37;66.53;101024.31;4980987;28;20263;-69
2021/06/17 02:18:44;;;;;;;8.40;2.40;;;;;;;15.45;66.05;101018.38;4981035;28;20232;-69
2021/06/17 02:21:10;;;;;;;5.27;2.90;;;;;;;15.47;65.83;101029.91;4997705;28;20258;-69
2021/06/17 02:23:37;;;;;;;5.00;2.60;;;;;;;15.51;65.41;101026.03;4997073;28;20220;-69
2021/06/17 02:26:04;;;;;;;7.73;2.90;;;;;;;15.43;65.88;101021.19;4997125;28;20177;-69
2021/06/17 02:28:33;;;;;;;5.33;2.93;;;;;;;15.44;65.88;101017.53;4980791;28;20545;-69
2021/06/17 02:31:02;;;;;;;4.50;2.23;;;;;;;15.49;65.38;101009.13;4996902;28;20177;-69
2021/06/17 02:33:28;;;;;;;6.37;3.00;;;;;;;15.50;65.62;101014.41;4997010;28;20243;-68
2021/06/17 02:35:54;;;;;;;4.17;2.40;;;;;;;15.50;65.54;101010.84;4997518;28;20173;-69
2021/06/17 02:38:25;;;;;;;6.73;3.07;;;;;;;15.48;65.44;101005.59;5014409;28;20177;-69
2021/06/17 02:40:51;;;;;;;5.83;2.73;;;;;;;15.46;65.55;101004.81;4997113;28;20169;-69
2021/06/17 02:43:19;;;;;;;6.73;2.97;;;;;;;15.45;65.57;101010.31;4996726;28;20212;-68
2021/06/17 02:45:45;;;;;;;4.47;2.60;;;;;;;15.66;64.63;101008.84;5014234;28;20589;-68
2021/06/17 02:48:11;;;;;;;10.33;2.90;;;;;;;15.57;64.88;101010.31;4996551;28;20173;-68
2021/06/17 02:50:37;;;;;;;5.17;2.67;;;;;;;15.60;64.86;101007.44;4996569;28;20226;-68
2021/06/17 02:53:03;;;;;;;8.00;2.67;;;;;;;15.75;64.07;101015.41;4996468;28;20573;-68
2021/06/17 02:55:28;;;;;;;16.53;3.10;;;;;;;15.88;63.75;101002.75;4996601;28;20195;-68
2021/06/17 02:58:07;;;;;;;4.13;2.60;;;;;;;15.83;64.05;101005.78;4980428;28;20739;-68
2021/06/17 03:00:36;;;;;;;5.00;2.43;;;;;;;16.00;63.28;101007.28;5014339;28;20162;-68
2021/06/17 03:03:01;;;;;;;7.40;3.37;;;;;;;16.13;62.91;101001.84;4996495;28;20212;-68
2021/06/17 03:05:33;;;;;;;6.20;2.80;;;;;;;16.16;62.60;101010.56;5014356;28;20161;-68
2021/06/17 03:08:10;;;;;;;4.93;2.77;;;;;;;16.21;62.28;101011.06;5014325;28;20177;-68
2021/06/17 03:10:36;;;;;;;4.60;2.83;;;;;;;16.32;62.04;101004.88;5014793;28;20161;-68
2021/06/17 03:13:03;;;;;;;5.70;2.67;;;;;;;16.38;61.70;101001.78;4996865;28;20270;-68
2021/06/17 03:15:33;;;;;;;6.77;2.37;;;;;;;15.99;63.55;100993.94;4996639;28;20279;-68
2021/06/17 03:18:00;;;;;;;5.37;2.80;;;;;;;15.87;63.96;100991.13;4996993;28;20287;-68
2021/06/17 03:20:26;;;;;;;7.97;2.90;;;;;;;15.93;63.81;100990.69;4996222;28;20173;-68
2021/06/17 03:22:53;;;;;;;6.00;2.33;;;;;;;15.99;63.59;100993.94;4996265;28;20196;-68
2021/06/17 03:25:20;;;;;;;4.47;2.30;;;;;;;15.82;64.64;100995.13;4979827;28;20173;-69
2021/06/17 03:27:49;;;;;;;5.13;2.50;;;;;;;15.86;64.50;100985.88;4996077;28;20169;-69
2021/06/17 03:30:18;;;;;;;5.47;2.83;;;;;;;15.93;64.37;100990.69;4996023;28;20585;-69
2021/06/17 03:32:44;;;;;;;7.17;2.77;;;;;;;15.95;64.16;100982.50;4995757;28;20196;-69
2021/06/17 03:35:10;;;;;;;6.17;2.63;;;;;;;16.01;64.27;100992.00;4996077;28;20192;-69
2021/06/17 03:37:36;;;;;;;5.03;2.30;;;;;;;15.98;64.18;100992.19;4995768;28;20176;-68
2021/06/17 03:40:02;;;;;;;9.33;2.90;;;;;;;15.98;64.59;100989.50;4995770;28;20218;-68
2021/06/17 03:42:28;;;;;;;9.73;2.67;;;;;;;16.01;64.94;100982.06;4995021;28;20209;-68
2021/06/17 03:44:55;;;;;;;5.13;2.70;;;;;;;16.11;64.19;100982.25;4995762;28;20256;-68
2021/06/17 03:47:24;;;;;;;6.53;2.80;;;;;;;16.04;64.87;100989.06;4995884;28;20173;-68
2021/06/17 03:49:51;;;;;;;7.40;2.93;;;;;;;16.25;64.31;100984.78;4995747;28;20199;-68
2021/06/17 03:52:16;;;;;;;15.70;3.00;;;;;;;16.10;64.84;100985.94;5013156;28;20196;-68
2021/06/17 03:54:43;;;;;;;9.77;3.20;;;;;;;16.51;63.51;100990.91;5013217;28;20632;-68
2021/06/17 03:57:08;;;;;;;4.43;2.63;;;;;;;16.55;63.56;100987.03;4995683;28;20191;-68
2021/06/17 03:59:40;;;;;;;7.63;2.93;;;;;;;16.47;63.81;100990.28;4995723;28;20173;-68
2021/06/17 04:02:06;;;;;;;5.47;2.67;;;;;;;16.55;63.88;100979.78;5013261;28;20212;-68
2021/06/17 04:04:32;;;;;;;7.93;2.77;;;;;;;16.61;63.66;100977.59;4996035;28;20157;-69
2021/06/17 04:06:59;;;;;;;10.00;2.93;;;;;;;16.65;63.97;100976.41;4979271;28;20179;-69
2021/06/17 04:09:34;;;;;;;7.10;2.67;;;;;;;16.88;63.37;100975.53;5013377;28;20611;-69
2021/06/17 04:12:07;;;;;;;5.80;3.30;;;;;;;17.17;62.22;100971.44;4979249;28;20279;-69
2021/06/17 04:14:34;;;;;;;6.57;3.53;;;;;;;17.36;62.08;100976.25;4995455;28;20669;-70
2021/06/17 04:16:59;;;;;;;10.20;3.07;;;;;;;17.49;61.67;100970.75;4979473;28;20180;-69
2021/06/17 04:19:27;;;;;;;7.33;3.33;;;;;;;17.59;61.33;100968.19;4995857;28;20238;-68
2021/06/17 04:21:56;;;;;;;5.10;2.90;;;;;;;17.71;61.02;100968.06;5013013;28;20171;-69
2021/06/17 04:24:22;;;;;;;5.97;2.53;;;;;;;17.84;61.16;100972.47;4995533;28;20161;-69
2021/06/17 04:26:49;;;;;;;9.73;3.33;;;;;;;17.89;60.95;100978.38;5013111;28;20173;-67
2021/06/17 04:29:15;;;;;;;10.30;3.13;;;;;;;18.02;60.68;100979.94;4995647;28;20177;-69
2021/06/17 04:31:42;;;;;;;6.30;2.90;;;;;;;18.15;60.43;100985.19;4995520;28;20223;-69
2021/06/17 04:34:08;;;;;;;9.07;3.30;;;;;;;18.24;60.20;100976.34;4995407;28;20197;-69
2021/06/17 04:36:33;;;;;;;11.67;3.73;;;;;;;18.20;60.21;100977.56;4978931;28;20271;-69
2021/06/17 04:38:59;;;;;;;6.17;2.83;;;;;;;18.28;60.73;100982.34;5013155;28;20181;-68
2021/06/17 04:41:24;;;;;;;5.43;3.23;;;;;;;18.46;60.10;100986.22;5013331;28;20169;-68
2021/06/17 04:43:50;;;;;;;9.13;3.57;;;;;;;18.55;60.00;100984.59;5012673;28;20220;-69
2021/06/17 04:46:15;;;;;;;8.23;3.40;;;;;;;18.49;59.77;100994.06;4996040;28;20177;-68
2021/06/17 04:48:43;;;;;;;5.80;3.47;;;;;;;18.71;59.95;100991.31;4979186;28;20177;-76
2021/06/17 04:51:10;;;;;;;6.80;3.20;;;;;;;18.80;59.65;100989.69;4979741;28;20228;-70
2021/06/17 04:53:36;;;;;;;9.93;3.73;;;;;;;18.89;59.75;100994.28;4998804;28;20185;-70
2021/06/17 04:56:01;;;;;;;5.67;3.50;;;;;;;19.01;59.09;100998.69;5004626;28;20201;-77
2021/06/17 04:58:27;;;;;;;15.83;4.10;;;;;;;19.01;59.89;100997.81;5021684;28;20180;-76
2021/06/17 05:00:52;;;;;;;10.40;3.70;;;;;;;19.07;59.01;101002.69;5000016;28;20177;-72
2021/06/17 05:03:18;;;;;;;6.30;3.47;;;;;;;19.32;58.76;100996.00;5028114;28;20235;-71
2021/06/17 05:05:45;;;;;;;7.97;3.30;;;;;;;19.35;58.42;101002.03;4999003;28;20169;-73
2021/06/17 05:10:49;;;;;;;12.90;3.77;;;;;;;19.42;58.69;100996.09;5003864;28;20160;-73
2021/06/17 05:13:29;;;;;;;12.50;4.10;;;;;;;19.61;58.30;100997.06;4999214;28;20280;-73
2021/06/17 05:15:56;;;;;;;7.13;3.60;;;;;;;19.74;57.90;100999.56;5016371;28;20192;-73
2021/06/17 05:18:22;;;;;;;11.63;4.17;;;;;;;19.80;57.91;100987.31;5016913;28;20177;-73
2021/06/17 05:20:48;;;;;;;10.23;3.90;;;;;;;19.86;58.22;100993.03;4998783;28;20165;-73
2021/06/17 05:23:18;;;;;;;9.20;3.77;;;;;;;19.95;57.60;100988.66;5016171;28;20200;-73
2021/06/17 05:25:43;;;;;;;8.93;3.87;;;;;;;20.05;57.60;100994.94;4999130;28;20157;-73
2021/06/17 05:28:13;;;;;;;6.63;3.63;;;;;;;20.09;57.74;100985.56;4998401;28;20179;-73
2021/06/17 05:30:39;;;;;;;4.90;3.57;;;;;;;20.21;57.45;100989.00;4982555;28;20473;-73
2021/06/17 05:33:04;;;;;;;7.60;3.50;;;;;;;20.29;57.07;100986.47;4998287;28;20197;-73
2021/06/17 05:35:29;;;;;;;7.27;3.80;;;;;;;20.36;56.59;100986.75;5015531;28;20200;-73
2021/06/17 05:37:55;;;;;;;6.97;4.00;;;;;;;20.39;57.41;100989.16;5015746;28;20204;-74
2021/06/17 05:40:20;;;;;;;6.80;4.00;;;;;;;20.48;57.72;100985.69;4998408;28;20173;-73
2021/06/17 05:42:45;;;;;;;6.57;3.80;;;;;;;20.28;57.56;100999.16;5015624;28;20200;-73
2021/06/17 05:45:11;;;;;;;9.10;4.40;;;;;;;20.49;57.43;101001.81;5015868;28;20192;-73
2021/06/17 05:47:37;;;;;;;7.53;4.10;;;;;;;20.51;57.22;100997.09;5015897;28;20177;-72
2021/06/17 05:50:04;;;;;;;11.83;3.83;;;;;;;20.50;57.79;101002.66;5015865;28;20169;-73
2021/06/17 05:52:29;;;;;;;12.17;3.87;;;;;;;20.65;57.35;100995.81;5015171;28;20251;-66
2021/06/17 05:54:54;;;;;;;7.53;3.90;;;;;;;20.75;57.75;101001.22;5015559;28;20189;-65
2021/06/17 05:57:20;;;;;;;8.10;4.30;;;;;;;20.82;57.72;100995.13;5016009;28;20185;-66
2021/06/17 05:59:45;;;;;;;11.30;4.30;;;;;;;20.86;57.14;100990.25;5015729;28;20592;-68
2021/06/17 06:02:11;;;;;;;6.83;4.00;;;;;;;21.01;56.90;100993.38;5015379;28;20707;-68
2021/06/17 06:04:36;;;;;;;10.77;4.90;;;;;;;20.98;56.99;100999.94;5015123;28;20625;-70
2021/06/17 06:07:02;;;;;;;12.57;5.17;;;;;;;20.73;58.41;101001.38;5015316;28;20256;-69
2021/06/17 06:09:27;;;;;;;14.03;5.20;;;;;;;20.74;57.81;100992.22;4998161;28;20180;-69
2021/06/17 06:11:52;;;;;;;7.37;4.33;;;;;;;21.16;57.73;100984.63;4997792;28;20208;-68
2021/06/17 06:14:17;;;;;;;8.03;4.10;;;;;;;21.31;56.69;100978.78;5015487;28;20196;-68
2021/06/17 06:16:43;;;;;;;12.50;5.17;;;;;;;21.15;56.50;100977.47;5015015;28;20181;-67
2021/06/17 06:19:09;;;;;;;9.20;4.53;;;;;;;21.31;56.47;100984.22;5015409;28;20176;-68
2021/06/17 06:21:34;;;;;;;9.60;4.50;;;;;;;21.14;57.60;100989.34;4997373;28;20173;-68
2021/06/17 06:23:59;;;;;;;8.13;4.70;;;;;;;21.38;57.61;100985.34;5014653;28;20231;-67
2021/06/17 06:26:25;;;;;;;7.73;4.37;;;;;;;21.60;56.65;100995.00;5014686;28;20173;-67
2021/06/17 06:28:50;;;;;;;10.17;4.63;;;;;;;21.79;56.29;100992.19;5014470;28;20173;-66
2021/06/17 06:31:15;;;;;;;7.00;4.57;;;;;;;21.90;56.14;100982.97;5014450;28;20184;-67
2021/06/17 06:33:41;;;;;;;7.63;4.37;;;;;;;21.69;56.87;100983.22;5014370;28;20565;-68
2021/06/17 06:36:06;;;;;;;16.90;6.00;;;;;;;21.82;56.72;100989.16;4997359;28;20228;-69
2021/06/17 06:38:32;;;;;;;11.70;4.40;;;;;;;22.01;56.24;100975.50;4996787;28;20196;-69
2021/06/17 06:40:59;;;;;;;8.83;4.33;;;;;;;22.15;55.53;100985.88;5014465;28;20192;-69
2021/06/17 06:43:24;;;;;;;12.17;4.73;;;;;;;22.34;54.99;100981.34;5014382;28;20203;-69
2021/06/17 06:45:49;;;;;;;8.47;4.47;;;;;;;21.93;55.16;100990.81;5014163;28;20165;-69
2021/06/17 06:48:16;;;;;;;12.80;5.00;;;;;;;22.27;54.96;100988.38;4996912;28;20242;-69
2021/06/17 06:50:41;;;;;;;15.73;4.83;;;;;;;22.15;54.50;100996.75;5014804;28;20195;-71
2021/06/17 06:53:07;;;;;;;8.50;4.73;;;;;;;22.06;55.67;100989.53;5015226;28;20204;-70
2021/06/17 06:55:32;;;;;;;8.03;4.70;;;;;;;22.32;55.61;101003.25;5015359;28;20224;-69
2021/06/17 06:57:57;;;;;;;16.40;5.40;;;;;;;22.34;55.42;100998.53;4997745;28;20185;-69
2021/06/17 07:00:23;;;;;;;12.80;5.10;;;;;;;22.60;53.93;100995.88;5014563;28;20256;-69
2021/06/17 07:02:48;;;;;;;8.23;4.67;;;;;;;22.60;53.97;101001.31;5014470;28;20213;-68
2021/06/17 07:05:14;;;;;;;9.07;4.83;;;;;;;22.67;54.00;100999.72;4996606;28;20248;-69
2021/06/17 07:07:40;;;;;;;10.67;4.60;;;;;;;22.82;53.84;101004.63;4997527;28;20200;-68
2021/06/17 07:10:07;;;;;;;13.53;5.97;;;;;;;22.50;54.70;101002.41;4996979;28;20185;-69
2021/06/17 07:12:32;;;;;;;10.33;5.33;;;;;;;22.67;55.04;101001.56;5015000;28;20712;-69
2021/06/17 07:14:58;;;;;;;13.80;5.27;;;;;;;22.56;55.00;101007.22;4996791;28;20193;-70
2021/06/17 07:17:24;;;;;;;12.13;5.17;;;;;;;22.75;54.85;100994.34;5013581;28;20176;-69
2021/06/17 07:19:49;;;;;;;8.17;5.07;;;;;;;22.97;54.86;101003.06;5014289;28;20185;-69
2021/06/17 07:22:14;;;;;;;9.27;5.30;;;;;;;23.27;53.03;100999.91;5013688;28;20193;-69
2021/06/17 07:24:42;;;;;;;9.57;5.03;;;;;;;23.33;53.10;100998.41;4996570;28;20180;-69
2021/06/17 07:27:07;;;;;;;9.73;5.10;;;;;;;23.31;52.98;100995.84;4996378;28;20637;-69
2021/06/17 07:29:32;;;;;;;13.67;5.87;;;;;;;23.13;53.05;100995.03;5013657;28;20184;-70
2021/06/17 07:31:58;;;;;;;12.20;5.93;;;;;;;23.25;53.40;100996.47;5013682;28;20200;-69
2021/06/17 07:34:23;;;;;;;10.60;5.43;;;;;;;23.32;53.05;101002.13;5014307;28;20201;-68
2021/06/17 07:36:50;;;;;;;13.70;5.53;;;;;;;23.51;52.74;100993.78;5013775;28;20548;-69
2021/06/17 07:39:16;;;;;;;16.30;5.20;;;;;;;23.66;52.54;100997.63;5013718;28;20311;-70
2021/06/17 07:41:41;;;;;;;14.00;5.60;;;;;;;23.52;52.82;100998.19;4996118;28;20255;-69
2021/06/17 07:44:06;;;;;;;7.07;4.87;;;;;;;23.58;53.23;101002.19;4979734;28;20276;-69
2021/06/17 07:46:32;;;;;;;12.57;5.00;;;;;;;23.93;53.63;100988.41;4979583;28;20191;-68
2021/06/17 07:49:01;;;;;;;13.67;5.13;;;;;;;24.29;51.47;100986.34;5013298;28;20223;-69
2021/06/17 07:51:27;;;;;;;8.33;4.63;;;;;;;24.18;51.79;100992.09;4996332;28;20641;-69
2021/06/17 07:53:52;;;;;;;13.00;5.87;;;;;;;24.01;52.33;101003.94;4995718;28;20193;-69
2021/06/17 07:56:18;;;;;;;10.73;4.90;;;;;;;24.45;51.13;101003.75;4979686;28;20184;-69
2021/06/17 07:58:45;;;;;;;10.80;4.77;;;;;;;24.60;50.49;101005.69;4995907;28;20196;-69
2021/06/17 08:01:11;;;;;;;9.77;5.50;;;;;;;24.80;50.15;100999.91;4996017;28;20271;-68
2021/06/17 08:03:36;;;;;;;6.70;4.80;;;;;;;25.03;49.93;101002.84;5027298;22;20303;-74
2021/06/17 08:06:01;;;;;;;11.17;4.63;;;;;;;25.16;49.81;101000.44;5014587;28;20177;-75
2021/06/17 08:08:27;;;;;;;11.57;5.70;;;;;;;25.12;49.45;101008.13;4979798;28;20180;-74
2021/06/17 08:10:52;;;;;;;12.83;5.43;;;;;;;25.13;49.67;101001.66;5013833;28;20545;-74
2021/06/17 08:13:17;;;;;;;8.27;4.83;;;;;;;25.17;49.77;101007.63;5014499;28;20193;-74
2021/06/17 08:15:43;;;;;;;10.80;4.90;;;;;;;25.44;49.47;100998.19;4996480;28;20209;-74
2021/06/17 08:18:09;;;;;;;8.40;4.77;;;;;;;25.68;48.80;100994.59;5013916;28;20176;-74
2021/06/17 08:20:34;;;;;;;12.43;5.20;;;;;;;25.72;48.77;101002.28;5019797;28;20168;-73
2021/06/17 08:22:59;;;;;;;8.30;4.60;;;;;;;25.89;47.79;100994.00;5013141;28;20220;-74
2021/06/17 08:25:25;;;;;;;9.47;4.90;;;;;;;25.91;47.58;100991.94;4979590;28;20165;-74
2021/06/17 08:27:50;;;;;;;11.50;5.53;;;;;;;25.91;48.35;100995.53;4997391;28;20173;-74
2021/06/17 08:30:18;;;;;;;9.47;5.00;;;;;;;26.10;47.63;100995.13;4999525;28;20173;-73
2021/06/17 08:32:45;;;;;;;9.77;4.83;;;;;;;25.91;48.10;100991.94;4999547;28;20657;-73
2021/06/17 08:35:13;;;;;;;13.57;4.90;;;;;;;26.24;48.17;100989.91;4999297;28;20661;-75
2021/06/17 08:37:38;;;;;;;11.00;4.73;;;;;;;26.47;47.20;101002.66;4999900;28;20169;-74
2021/06/17 08:40:05;;;;;;;8.00;5.33;;;;;;;26.65;46.35;100996.88;5016865;28;20630;-75
2021/06/17 08:42:31;;;;;;;6.00;4.43;;;;;;;26.76;46.29;100995.59;4999389;28;20201;-73
2021/06/17 08:44:58;;;;;;;6.77;4.40;;;;;;;26.54;46.37;100996.44;4982859;28;20518;-73
2021/06/17 08:47:24;;;;;;;8.53;4.37;;;;;;;26.57;47.21;100991.47;4999072;28;20176;-73
2021/06/17 08:49:52;;;;;;;9.80;4.77;;;;;;;26.90;46.92;100985.75;4999418;28;20173;-73
2021/06/17 08:52:18;;;;;;;9.40;5.10;;;;;;;26.92;45.42;100990.00;4999388;28;20304;-73
2021/06/17 08:54:43;;;;;;;9.03;4.53;;;;;;;27.10;45.40;100979.59;5016476;28;20223;-73
2021/06/17 08:57:09;;;;;;;9.17;4.60;;;;;;;27.12;45.48;100989.50;4998830;28;20633;-73
2021/06/17 08:59:38;;;;;;;13.77;4.87;;;;;;;27.16;45.16;100988.13;5016379;28;20169;-72
2021/06/17 09:02:04;;;;;;;9.83;4.90;;;;;;;27.39;45.44;100980.69;5016463;28;20648;-71
2021/06/17 09:04:31;;;;;;;10.07;5.33;;;;;;;27.43;45.86;100987.50;4998818;28;20181;-75
2021/06/17 09:07:02;;;;;;;7.93;4.70;;;;;;;27.25;45.70;100978.78;4999076;28;20268;-73
2021/06/17 09:09:40;;;;;;;10.50;5.23;;;;;;;27.45;44.96;100984.56;5016553;28;20183;-75
2021/06/17 09:12:07;;;;;;;10.43;5.20;;;;;;;27.45;46.23;100985.41;4982458;28;20594;-72
2021/06/17 09:14:32;;;;;;;8.83;4.93;;;;;;;27.61;45.34;100985.28;4998719;28;20666;-74
2021/06/17 09:17:03;;;;;;;6.87;4.77;;;;;;;27.52;45.96;100980.06;4982495;28;20184;-72
2021/06/17 09:19:38;;;;;;;14.17;5.03;;;;;;;27.67;45.59;100995.50;5016419;28;20165;-72
2021/06/17 09:22:05;;;;;;;11.70;5.00;;;;;;;27.79;45.31;100986.78;4999070;28;20688;-72
2021/06/17 09:24:34;;;;;;;8.87;4.70;;;;;;;27.94;44.20;100988.50;5016092;28;20529;-73
2021/06/17 09:27:21;;;;;;;11.87;5.10;;;;;;;27.79;44.71;100984.91;5016583;28;20201;-73
2021/06/17 09:29:47;;;;;;;8.13;4.77;;;;;;;27.83;44.47;100985.38;5016765;28;20282;-73
2021/06/17 09:32:24;;;;;;;10.40;5.53;;;;;;;27.71;44.49;100990.47;4999375;28;20352;-73
2021/06/17 09:34:50;;;;;;;6.57;4.80;;;;;;;28.01;44.04;100985.84;4982465;28;20275;-74
2021/06/17 09:37:35;;;;;;;7.10;4.57;;;;;;;28.12;43.41;100979.00;4999185;28;20208;-73
2021/06/17 09:40:20;;;;;;;9.00;4.07;;;;;;;28.48;42.97;100979.91;5015302;28;20185;-74
2021/06/17 09:42:46;;;;;;;7.13;4.40;;;;;;;28.64;41.96;100982.41;5016186;28;20250;-74
2021/06/17 09:45:16;;;;;;;8.77;4.90;;;;;;;28.22;43.05;100982.28;4998763;28;20173;-73
2021/06/17 09:47:44;;;;;;;6.27;4.23;;;;;;;28.68;42.38;100991.09;4998717;28;20176;-73
2021/06/17 09:50:27;;;;;;;4.90;4.10;;;;;;;28.55;42.05;100978.06;4998780;28;20169;-73
2021/06/17 09:52:53;;;;;;;7.70;4.57;;;;;;;28.68;41.92;100987.50;4998005;28;20242;-73
2021/06/17 09:55:40;;;;;;;9.33;4.67;;;;;;;29.08;40.92;100983.25;4997939;28;20223;-73
2021/06/17 09:58:11;;;;;;;8.13;4.33;;;;;;;29.26;40.52;100976.22;5016174;28;20224;-73
2021/06/17 10:00:52;;;;;;;7.63;4.67;;;;;;;28.60;40.62;100980.22;4998154;28;20694;-72
2021/06/17 10:03:17;;;;;;;9.57;4.47;;;;;;;28.91;40.92;100980.78;4998019;28;20215;-73
2021/06/17 10:05:43;;;;;;;7.80;4.30;;;;;;;28.68;40.94;100977.38;4997508;28;20173;-74
2021/06/17 10:08:08;;;;;;;9.50;4.30;;;;;;;28.73;39.88;100985.88;4981018;28;20189;-74
2021/06/17 10:10:36;;;;;;;6.73;4.30;;;;;;;28.73;39.36;100974.88;4997462;28;20173;-73
2021/06/17 10:13:04;;;;;;;8.27;4.13;;;;;;;28.92;39.64;100963.25;5015565;28;20189;-74
2021/06/17 10:15:29;;;;;;;7.90;3.87;;;;;;;28.67;40.87;100959.19;4999964;28;20262;-73
2021/06/17 10:17:55;;;;;;;7.43;4.50;;;;;;;28.74;40.48;100967.50;5001739;28;20244;-74
2021/06/17 10:20:22;;;;;;;5.33;3.77;;;;;;;29.30;38.46;100953.81;4999594;28;20639;-74
2021/06/17 10:22:51;;;;;;;5.50;4.20;;;;;;;29.11;38.45;100963.63;5016177;28;20203;-73
2021/06/17 10:25:23;;;;;;;7.93;4.00;;;;;;;29.30;38.83;100953.81;4998529;28;20180;-73
2021/06/17 10:27:50;;;;;;;8.97;4.70;;;;;;;29.87;38.34;100937.94;4981991;28;20311;-73
2021/06/17 10:30:16;;;;;;;4.70;3.93;;;;;;;30.36;37.58;100950.63;5016573;28;20173;-75
2021/06/17 10:32:45;;;;;;;8.03;3.40;;;;;;;30.14;36.75;100952.69;4998812;28;20208;-72
2021/06/17 10:35:11;;;;;;;5.10;4.05;;;;;;;29.60;37.15;100944.34;4984015;28;20250;-75
2021/06/17 10:37:51;;;;;;;7.03;3.80;;;;;;;29.40;36.78;100948.84;4999278;28;20244;-75
2021/06/17 10:40:19;;;;;;;7.47;3.47;;;;;;;29.97;36.10;100943.03;4999331;28;20633;-75
2021/06/17 10:42:48;;;;;;;7.13;3.63;;;;;;;29.81;35.79;100941.50;5016464;28;20225;-73
2021/06/17 10:45:14;;;;;;;7.80;3.90;;;;;;;30.35;35.44;100940.66;4998014;28;20649;-75
2021/06/17 10:47:50;;;;;;;9.52;4.30;;;;;;;30.52;34.55;100934.78;4998198;28;20678;-75
2021/06/17 10:50:21;;;;;;;5.72;3.83;;;;;;;30.92;35.26;100931.03;4997922;28;20196;-73
2021/06/17 10:52:49;;;;;;;11.77;3.45;;;;;;;31.30;33.14;100930.41;5015832;28;20196;-73
2021/06/17 10:55:17;;;;;;;5.68;3.72;;;;;;;30.99;33.35;100928.28;5015938;28;20197;-73
2021/06/17 10:57:47;;;;;;;6.00;3.83;;;;;;;30.95;33.78;100922.34;4982041;28;20177;-75
2021/06/17 11:00:22;;;;;;;8.15;3.80;;;;;;;31.01;33.58;100926.16;4997693;28;20176;-73
2021/06/17 11:02:58;;;;;;;7.53;3.83;;;;;;;31.74;33.35;100917.81;4999225;28;20240;-73
2021/06/17 11:05:40;;;;;;;7.22;3.63;;;;;;;32.20;31.80;100923.94;4997975;28;20172;-72
2021/06/17 11:08:15;;;;;;;7.85;4.10;;;;;;;32.25;31.15;100926.06;4997666;28;20688;-73
2021/06/17 11:10:44;;;;;;;6.80;3.97;;;;;;;32.75;31.10;100929.81;5015313;28;20218;-74
2021/06/17 11:13:29;;;;;;;6.15;4.03;;;;;;;34.26;28.93;100921.00;5015883;28;20192;-73
2021/06/17 11:16:00;;;;;;;8.43;3.08;;;;;;;34.73;27.35;100912.84;4998517;28;20691;-74
2021/06/17 11:19:00;;;;;;;6.57;3.17;;;;;;;34.29;28.04;100923.28;4981965;28;20187;-74
2021/06/17 11:21:30;;;;;;;6.18;3.88;;;;;;;32.79;30.20;100924.69;4998183;28;20171;-74
2021/06/17 11:23:58;;;;;;;6.28;3.63;;;;;;;33.79;28.62;100931.78;4998008;28;20193;-73
2021/06/17 11:26:34;;;;;;;10.52;3.42;;;;;;;32.87;29.32;100927.19;4998339;28;20177;-74
2021/06/17 11:29:00;;;;;;;5.85;3.38;;;;;;;34.31;27.59;100920.28;5015283;28;20255;-74